Terminal Aerodrome Forecast
Issued by NWS Denver/Boulder, CO

Home | Current Version | Previous Version | Text Only | Print | Product List | Glossary On
Versions: 1 2 3 4 5 6 7 8 9 10 11 12 13 14 15 16 17 18 19 20 21 22 23 24 25 26 27 28 29 30 31 32
000
FTUS45 KBOU 260401 AAC
TAFDEN
TAF AMD
KDEN 260401Z 2604/2706 21010KT P6SM FEW250
     FM261500 24013KT P6SM FEW150 SCT220
     FM261900 27012KT P6SM SCT080 BKN150
     FM262300 34008KT P6SM SCT080 BKN150=

USA.gov is the U.S. government's official web portal to all federal, state and local government web resources and services.